Patterson, Missouri
Current Conditions -  °F | °C
As of 11:53 AM on Thursday 29 Jan 2015 (Local Time) from KPOF Reporting Station
Overcast Overcast  
Wind Chill: 44°   Ceiling: 3300
Heat Index: 49°   Visibility: 10mi
Dew Point: 36°   Wind: 14mph
Humidity: 61%   Direction: 330°NNW
Pressure: 30.14"   Gusts: 25mph
Location:  37.19°N, 90.55°W
Report Text: KPOF 291753Z AUTO 33012G22KT 10SM OVC033 09/02 A3014 RMK AO2 SLP208 T00940022 10122 20083 51038
Loading
Personal Weather Stations






























Interactive Weather Map New forecast layout! Learn more

10-Day Weather Forecast

Advertisements
Track Severe Weather on mobile